Time;durP1;ratioP1;P1;durP2;ratioP2;P2;SDS_P1;SDS_P2;PMS_P1;PMS_P2;Temp;Humidity;BMP_temperature;BMP_pressure;BME280_temperature;BME280_humidity;BME280_pressure;Samples;Min_cycle;Max_cycle;Signal;HPM_P1;HPM_P2
2023/03/30 00:01:16;;;;;;;11.88;6.57;;;;;;;12.60;65.03;101488.03;4976179;28;20039;-73
2023/03/30 00:03:45;;;;;;;13.48;7.18;;;;;;;12.58;65.52;101502.06;4974216;28;20437;-73
2023/03/30 00:06:22;;;;;;;11.77;7.60;;;;;;;12.53;66.35;101512.19;4995312;28;20382;-74
2023/03/30 00:08:55;;;;;;;14.20;7.60;;;;;;;12.50;66.06;101516.28;4980457;28;20047;-73
2023/03/30 00:11:25;;;;;;;13.30;7.43;;;;;;;12.65;65.69;101512.75;4975734;28;20058;-74
2023/03/30 00:13:52;;;;;;;12.82;7.20;;;;;;;12.63;66.06;101510.28;4974427;28;20047;-73
2023/03/30 00:16:20;;;;;;;20.13;8.45;;;;;;;12.75;65.31;101511.97;4976028;28;20051;-73
2023/03/30 00:18:49;;;;;;;15.57;7.43;;;;;;;12.61;66.21;101511.69;4975099;28;20054;-73
2023/03/30 00:21:19;;;;;;;12.48;7.70;;;;;;;12.61;66.68;101495.19;4975656;28;20054;-73
2023/03/30 00:23:47;;;;;;;15.70;7.97;;;;;;;12.66;66.43;101499.88;4975674;28;20047;-73
2023/03/30 00:26:16;;;;;;;16.08;7.82;;;;;;;12.57;66.32;101489.41;4975695;28;20066;-73
2023/03/30 00:28:45;;;;;;;12.77;7.43;;;;;;;12.51;67.17;101493.22;4975183;28;20088;-73
2023/03/30 00:31:13;;;;;;;18.20;7.45;;;;;;;12.34;67.62;101480.56;4975135;28;20057;-73
2023/03/30 00:33:42;;;;;;;17.95;8.35;;;;;;;12.68;67.48;101489.44;4973231;28;20051;-73
2023/03/30 00:36:15;;;;;;;13.13;7.43;;;;;;;12.67;67.41;101493.28;4975496;28;20054;-73
2023/03/30 00:38:44;;;;;;;13.90;8.25;;;;;;;12.68;67.95;101492.16;4975102;28;20054;-73
2023/03/30 00:41:13;;;;;;;10.52;7.25;;;;;;;12.67;67.20;101488.63;4974730;28;20406;-73
2023/03/30 00:43:58;;;;;;;18.38;8.02;;;;;;;12.56;67.25;101485.00;4975344;28;20057;-73
2023/03/30 00:46:28;;;;;;;;;;;;;;;12.41;67.91;101474.81;4974294;28;20046;-73
2023/03/30 00:49:02;;;;;;;12.00;7.45;;;;;;;12.48;68.06;101480.06;4974788;28;20380;-73
2023/03/30 00:51:36;;;;;;;22.67;9.55;;;;;;;12.53;67.51;101481.97;4972947;28;20379;-73
2023/03/30 00:54:11;;;;;;;16.48;8.27;;;;;;;12.25;69.76;101465.72;4975233;28;20445;-73
2023/03/30 00:56:39;;;;;;;16.02;8.27;;;;;;;12.34;68.79;101469.59;4974663;28;20055;-73
2023/03/30 00:59:08;;;;;;;17.13;8.10;;;;;;;12.46;68.87;101472.09;4973107;28;20493;-73
2023/03/30 01:01:37;;;;;;;13.90;8.02;;;;;;;12.53;67.64;101476.50;4973813;28;20505;-73
2023/03/30 01:04:08;;;;;;;13.85;8.40;;;;;;;12.51;69.60;101474.00;4974116;28;20050;-73
2023/03/30 01:06:38;;;;;;;13.73;7.97;;;;;;;12.47;69.55;101475.66;4974572;28;20513;-73
2023/03/30 01:09:07;;;;;;;12.38;7.82;;;;;;;12.51;68.29;101479.50;4974387;28;20054;-73
2023/03/30 01:11:35;;;;;;;15.65;7.78;;;;;;;12.55;68.01;101479.78;4973428;28;20047;-73
2023/03/30 01:14:07;;;;;;;13.95;8.55;;;;;;;12.56;68.01;101476.78;4974169;28;20051;-73
2023/03/30 01:16:34;;;;;;;14.98;8.27;;;;;;;12.51;68.40;101463.03;4974538;28;20054;-73
2023/03/30 01:19:21;;;;;;;13.85;8.10;;;;;;;12.36;69.57;101464.66;4973854;28;20054;-73
2023/03/30 01:22:30;;;;;;;12.20;8.25;;;;;;;12.19;70.41;101458.56;4972723;28;20062;-73
2023/03/30 01:25:14;;;;;;;13.32;8.07;;;;;;;12.22;71.54;101458.03;4951975;28;20049;-73
2023/03/30 01:28:06;;;;;;;15.45;8.40;;;;;;;12.21;71.93;101459.94;4972581;28;20055;-73
2023/03/30 01:30:37;;;;;;;15.98;8.98;;;;;;;12.20;71.13;101468.44;4974094;28;20047;-73
2023/03/30 01:33:43;;;;;;;11.02;7.75;;;;;;;12.14;71.78;101453.06;4972495;28;20063;-74
2023/03/30 01:36:40;;;;;;;14.48;8.30;;;;;;;12.23;71.32;101456.94;4974200;28;20386;-73
2023/03/30 01:39:56;;;;;;;12.77;7.95;;;;;;;12.21;71.38;101457.19;4972720;28;20054;-73
2023/03/30 01:42:38;;;;;;;15.27;8.63;;;;;;;12.21;72.12;101461.84;4941370;28;20055;-73
2023/03/30 01:45:39;;;;;;;13.60;8.38;;;;;;;12.15;71.91;101462.94;4973928;28;20050;-73
2023/03/30 01:48:12;;;;;;;15.20;9.13;;;;;;;12.09;71.84;101471.13;4972133;28;20393;-73
2023/03/30 01:50:46;;;;;;;16.15;9.55;;;;;;;12.06;72.92;101466.19;4973766;28;20055;-73
2023/03/30 01:53:19;;;;;;;16.33;9.95;;;;;;;12.02;73.79;101464.25;4972568;28;20046;-73
2023/03/30 01:55:53;;;;;;;19.38;10.18;;;;;;;11.94;73.59;101454.59;4974010;28;20386;-73
2023/03/30 01:58:33;;;;;;;;;;;;;;;12.00;73.08;101459.00;4972364;28;20780;-73
2023/03/30 02:01:02;;;;;;;15.63;9.65;;;;;;;12.10;72.82;101455.50;4972303;28;20377;-73
2023/03/30 02:03:35;;;;;;;12.57;8.60;;;;;;;12.04;72.70;101451.94;4973901;28;20050;-73
2023/03/30 02:06:27;;;;;;;18.80;8.77;;;;;;;12.00;73.48;101448.03;4972612;28;20055;-73
2023/03/30 02:08:58;;;;;;;13.57;7.72;;;;;;;11.99;74.14;101451.88;4973142;28;20039;-73
2023/03/30 02:11:29;;;;;;;15.95;8.65;;;;;;;11.87;73.38;101454.84;4971807;28;20054;-73
2023/03/30 02:14:00;;;;;;;12.43;7.97;;;;;;;11.90;73.58;101461.69;4971686;28;20050;-73
2023/03/30 02:16:33;;;;;;;14.43;8.23;;;;;;;11.87;74.65;101451.28;4971772;28;20497;-73
2023/03/30 02:19:01;;;;;;;17.30;8.43;;;;;;;11.77;74.34;101449.28;4971720;28;20051;-74
2023/03/30 02:21:30;;;;;;;13.45;8.73;;;;;;;11.80;75.01;101449.63;4973195;28;20054;-74
2023/03/30 02:24:02;;;;;;;13.85;8.05;;;;;;;11.82;75.48;101455.66;4971924;28;20059;-73
2023/03/30 02:26:31;;;;;;;16.45;8.88;;;;;;;11.77;75.67;101458.34;4973542;28;20047;-73
2023/03/30 02:28:59;;;;;;;16.35;8.80;;;;;;;11.68;75.24;101457.19;4972747;28;20047;-73
2023/03/30 02:31:27;;;;;;;17.38;9.73;;;;;;;11.58;75.34;101457.16;4972921;28;20066;-74
2023/03/30 02:33:55;;;;;;;16.35;9.23;;;;;;;11.55;76.59;101453.84;4971877;28;20495;-73
2023/03/30 02:36:38;;;;;;;16.20;9.45;;;;;;;11.58;76.41;101454.41;4973043;28;20065;-73
2023/03/30 02:39:12;;;;;;;15.65;8.15;;;;;;;11.58;77.19;101446.19;4955655;28;20517;-73
2023/03/30 02:42:09;;;;;;;16.05;9.30;;;;;;;11.55;76.73;101451.09;4971300;28;20065;-73
2023/03/30 02:45:07;;;;;;;18.63;9.07;;;;;;;11.53;76.53;101447.81;4971825;28;20054;-73
2023/03/30 02:48:10;;;;;;;19.70;10.40;;;;;;;11.50;77.20;101448.34;4971620;28;20047;-73
2023/03/30 02:50:56;;;;;;;14.90;9.95;;;;;;;11.53;76.90;101438.75;4940660;28;20059;-73
2023/03/30 02:53:57;;;;;;;17.73;9.13;;;;;;;11.53;77.39;101442.31;4972585;28;20043;-73
2023/03/30 02:57:02;;;;;;;19.42;10.00;;;;;;;11.56;77.59;101439.06;4974453;28;20062;-73
2023/03/30 02:59:40;;;;;;;20.02;10.90;;;;;;;11.58;78.83;101437.97;4976999;28;20046;-73
2023/03/30 03:02:18;;;;;;;19.67;11.27;;;;;;;11.55;77.44;101433.84;4959909;28;20058;-73
2023/03/30 03:04:53;;;;;;;;;;;;;;;11.54;77.94;101432.19;4975648;28;20054;-73
2023/03/30 03:07:59;;;;;;;22.45;12.23;;;;;;;11.40;79.51;101424.41;4969351;28;19958;-73
2023/03/30 03:10:27;;;;;;;22.13;11.32;;;;;;;11.38;79.08;101431.25;4976601;28;20070;-73
2023/03/30 03:12:55;;;;;;;19.38;11.40;;;;;;;11.32;79.52;101432.31;4975610;28;20047;-73
2023/03/30 03:15:24;;;;;;;18.60;11.40;;;;;;;11.37;80.03;101432.34;4975501;28;20505;-73
2023/03/30 03:18:18;;;;;;;20.58;12.20;;;;;;;11.35;80.58;101437.28;4974363;28;20051;-73
2023/03/30 03:20:46;;;;;;;21.38;11.23;;;;;;;11.23;79.83;101424.59;4976196;28;20050;-73
2023/03/30 03:23:14;;;;;;;21.23;12.25;;;;;;;11.20;80.40;101421.56;4975558;28;20062;-73
2023/03/30 03:25:47;;;;;;;19.02;11.32;;;;;;;11.25;80.82;101430.63;4975185;28;20058;-73
2023/03/30 03:28:17;;;;;;;22.02;12.25;;;;;;;11.27;80.49;101423.00;4974800;28;20254;-73
2023/03/30 03:30:48;;;;;;;20.83;11.40;;;;;;;11.22;80.96;101428.44;4976470;28;20421;-73
2023/03/30 03:33:19;;;;;;;24.08;12.93;;;;;;;11.26;81.00;101426.81;4974150;28;20063;-73
2023/03/30 03:35:59;;;;;;;19.33;11.57;;;;;;;11.25;80.89;101419.66;4975366;28;20097;-73
2023/03/30 03:38:29;;;;;;;23.38;12.60;;;;;;;11.15;81.62;101419.63;4974737;28;20058;-73
2023/03/30 03:40:59;;;;;;;20.23;13.40;;;;;;;11.09;82.42;101420.69;4975128;28;20425;-73
2023/03/30 03:43:29;;;;;;;19.20;12.50;;;;;;;11.11;82.52;101424.78;4975282;28;20062;-73
2023/03/30 03:45:57;;;;;;;21.75;12.45;;;;;;;11.10;83.34;101425.88;4976057;28;20061;-73
2023/03/30 03:48:25;;;;;;;22.40;14.13;;;;;;;11.04;83.55;101429.66;4975093;28;20518;-73
2023/03/30 03:50:57;;;;;;;21.83;13.35;;;;;;;10.88;84.45;101429.56;4974677;28;20047;-73
2023/03/30 03:53:27;;;;;;;23.17;13.52;;;;;;;11.00;84.36;101426.63;4974669;28;20474;-73
2023/03/30 03:56:01;;;;;;;24.35;14.18;;;;;;;11.14;83.65;101426.16;4975009;28;20042;-73
2023/03/30 03:58:29;;;;;;;20.73;13.82;;;;;;;11.10;84.09;101442.31;4974401;28;20062;-73
2023/03/30 04:01:01;;;;;;;21.58;13.65;;;;;;;11.08;84.69;101443.66;4975853;28;20039;-73
2023/03/30 04:03:30;;;;;;;25.17;14.40;;;;;;;11.05;84.65;101436.78;4975930;28;20405;-73
2023/03/30 04:05:59;;;;;;;24.10;14.77;;;;;;;11.07;84.09;101442.00;4974205;28;20058;-73
2023/03/30 04:08:28;;;;;;;25.70;15.00;;;;;;;10.96;85.28;101425.47;4974051;28;20059;-73
2023/03/30 04:11:07;;;;;;;27.92;14.85;;;;;;;11.01;85.19;101427.47;4973947;28;20046;-73
2023/03/30 04:13:47;;;;;;;24.27;14.25;;;;;;;11.10;85.31;101441.50;4974332;28;20058;-73
2023/03/30 04:16:31;;;;;;;31.02;15.95;;;;;;;11.19;84.31;101434.44;4974686;28;20054;-73
2023/03/30 04:19:16;;;;;;;;;;;;;;;11.28;84.08;101438.34;4974901;28;20043;-73
2023/03/30 04:21:54;;;;;;;25.23;14.82;;;;;;;11.36;83.53;101433.44;4974380;28;19929;-73
2023/03/30 04:24:55;;;;;;;28.95;15.63;;;;;;;11.41;82.77;101428.84;4956285;28;20058;-73
2023/03/30 04:27:42;;;;;;;29.02;14.75;;;;;;;11.54;82.06;101427.53;4960215;28;20054;-73
2023/03/30 04:30:23;;;;;;;34.17;15.93;;;;;;;11.60;83.21;101417.44;4974124;28;20367;-73
2023/03/30 04:33:10;;;;;;;23.13;15.18;;;;;;;11.54;83.52;101411.06;4975374;28;20058;-73
2023/03/30 04:36:00;;;;;;;28.27;16.92;;;;;;;11.61;81.58;101415.50;4974541;28;20054;-73
2023/03/30 04:38:58;;;;;;;24.95;15.38;;;;;;;11.71;81.23;101412.81;4973456;28;20054;-73
2023/03/30 04:41:51;;;;;;;25.30;15.77;;;;;;;11.86;80.95;101414.78;4945658;29;20067;-84
2023/03/30 04:44:35;;;;;;;28.63;15.20;;;;;;;11.77;81.74;101416.38;4938989;29;20051;-72
2023/03/30 04:47:20;;;;;;;26.88;14.77;;;;;;;11.67;82.02;101400.72;4969441;28;20383;-71
2023/03/30 04:50:07;;;;;;;21.92;14.95;;;;;;;11.65;80.31;101402.91;4974626;28;20050;-71
2023/03/30 04:52:54;;;;;;;26.45;14.27;;;;;;;11.48;82.55;101416.81;4968792;28;20411;-71
2023/03/30 04:55:22;;;;;;;23.95;13.32;;;;;;;11.47;82.11;101409.66;4970603;28;20509;-72
2023/03/30 04:58:02;;;;;;;25.40;14.70;;;;;;;11.54;82.37;101408.34;4964061;28;20397;-72
2023/03/30 05:00:46;;;;;;;27.08;13.85;;;;;;;11.51;82.65;101397.91;4975099;28;20051;-72
2023/03/30 05:03:23;;;;;;;24.58;14.60;;;;;;;11.46;83.49;101405.28;4973418;28;20047;-71
2023/03/30 05:06:14;;;;;;;25.67;14.27;;;;;;;11.48;82.71;101397.63;4978116;28;20046;-71
2023/03/30 05:09:02;;;;;;;23.35;14.48;;;;;;;11.56;81.56;101394.38;4983114;28;20078;-71
2023/03/30 05:11:56;;;;;;;27.70;14.48;;;;;;;11.67;81.23;101396.06;4992364;28;20524;-71
2023/03/30 05:14:34;;;;;;;24.58;15.18;;;;;;;11.61;81.47;101407.28;4973489;28;20050;-70
2023/03/30 05:17:21;;;;;;;26.02;14.82;;;;;;;11.65;82.13;101408.41;4973961;28;20054;-71
2023/03/30 05:20:12;;;;;;;26.65;14.18;;;;;;;11.67;81.54;101411.69;4964452;28;20055;-71
2023/03/30 05:23:12;;;;;;;25.38;15.35;;;;;;;11.74;82.02;101412.28;4940862;28;20047;-71
2023/03/30 05:26:15;;;;;;;24.92;15.02;;;;;;;11.76;81.28;101423.81;4947870;28;20062;-71
2023/03/30 05:28:46;;;;;;;28.13;14.55;;;;;;;11.93;80.46;101415.34;4969426;28;20047;-72
2023/03/30 05:31:25;;;;;;;26.17;15.63;;;;;;;11.96;80.32;101422.22;4971985;28;20047;-71
2023/03/30 05:34:22;;;;;;;24.58;15.50;;;;;;;12.03;79.98;101419.25;4954444;28;20066;-71
2023/03/30 05:36:58;;;;;;;27.52;14.73;;;;;;;12.08;79.38;101420.09;4988384;28;20061;-71
2023/03/30 05:39:45;;;;;;;30.35;16.80;;;;;;;12.15;78.44;101413.53;4974224;28;20057;-71
2023/03/30 05:42:36;;;;;;;29.23;16.50;;;;;;;12.39;77.27;101426.78;4974060;28;20398;-73
2023/03/30 05:45:30;;;;;;;;;;;;;;;12.25;78.14;101416.31;4971703;28;20054;-73
2023/03/30 05:48:23;;;;;;;32.38;16.00;;;;;;;12.25;77.12;101419.06;4974264;28;19929;-73
2023/03/30 05:51:14;;;;;;;27.98;16.02;;;;;;;12.36;77.91;101417.16;4950261;28;20616;-73
2023/03/30 05:54:05;;;;;;;26.67;16.13;;;;;;;12.35;77.91;101415.50;4991803;28;20401;-73
2023/03/30 05:56:46;;;;;;;26.35;16.40;;;;;;;12.63;75.96;101411.44;4992115;28;20051;-73
2023/03/30 05:59:39;;;;;;;26.88;15.30;;;;;;;12.71;75.71;101412.00;4986241;28;20054;-73
2023/03/30 06:02:16;;;;;;;25.60;15.68;;;;;;;12.97;74.19;101417.47;4970157;28;20572;-73
2023/03/30 06:04:46;;;;;;;26.38;16.30;;;;;;;12.86;75.06;101430.41;4968851;28;20059;-73
2023/03/30 06:07:16;;;;;;;26.48;14.80;;;;;;;12.84;75.23;101430.69;4954662;28;20405;-73
2023/03/30 06:09:44;;;;;;;29.92;16.00;;;;;;;12.80;76.39;101429.56;4965033;28;20510;-73
2023/03/30 06:12:21;;;;;;;26.48;16.13;;;;;;;12.76;74.98;101437.53;4985560;28;20062;-72
2023/03/30 06:14:49;;;;;;;27.35;16.35;;;;;;;12.83;74.99;101430.94;4967914;28;20070;-73
2023/03/30 06:17:25;;;;;;;27.42;14.90;;;;;;;12.82;75.78;101430.13;4952398;28;20067;-73
2023/03/30 06:19:53;;;;;;;24.38;14.88;;;;;;;12.79;75.63;101440.81;4968869;28;20066;-72
2023/03/30 06:22:21;;;;;;;31.73;16.15;;;;;;;12.86;76.97;101442.19;4967944;28;20050;-72
2023/03/30 06:25:14;;;;;;;24.23;15.48;;;;;;;12.75;76.11;101451.53;4953541;29;20066;-72
2023/03/30 06:27:42;;;;;;;28.17;15.25;;;;;;;12.81;76.69;101458.69;4968741;28;20046;-72
2023/03/30 06:30:12;;;;;;;27.23;15.23;;;;;;;12.48;77.54;101455.34;4971511;28;20042;-72
2023/03/30 06:32:42;;;;;;;27.45;15.35;;;;;;;12.58;77.27;101454.53;4970157;28;20098;-72
2023/03/30 06:35:20;;;;;;;28.42;15.52;;;;;;;12.67;76.00;101471.31;4971468;28;20054;-71
2023/03/30 06:37:49;;;;;;;27.30;15.18;;;;;;;12.82;75.05;101465.84;4969050;28;20043;-72
2023/03/30 06:40:17;;;;;;;31.30;15.93;;;;;;;12.77;76.61;101465.84;4970403;28;20402;-72
2023/03/30 06:42:48;;;;;;;26.73;15.45;;;;;;;12.78;75.45;101467.47;4971417;28;20047;-72
2023/03/30 06:45:26;;;;;;;28.50;15.80;;;;;;;12.89;75.60;101469.13;4962178;28;20055;-72
2023/03/30 06:47:55;;;;;;;26.20;16.00;;;;;;;12.81;74.79;101471.59;4956819;28;20051;-72
2023/03/30 06:50:23;;;;;;;25.52;15.68;;;;;;;12.87;75.29;101471.31;4961705;28;20051;-72
2023/03/30 06:53:11;;;;;;;33.53;16.48;;;;;;;12.97;75.67;101469.69;4966213;28;20055;-72
2023/03/30 06:55:44;;;;;;;27.75;16.15;;;;;;;13.02;75.60;101467.75;4967492;28;20055;-72
2023/03/30 06:58:18;;;;;;;29.00;15.73;;;;;;;12.93;75.61;101465.81;4966462;28;20504;-73
2023/03/30 07:00:46;;;;;;;30.55;15.50;;;;;;;13.09;75.65;101478.47;4973726;28;20374;-71
2023/03/30 07:03:32;;;;;;;27.58;15.57;;;;;;;13.19;73.84;101479.59;4965560;28;20116;-72
2023/03/30 07:06:12;;;;;;;26.02;15.27;;;;;;;13.06;74.30;101484.53;4970102;28;20058;-72
2023/03/30 07:08:40;;;;;;;27.05;15.55;;;;;;;13.16;74.89;101483.72;4972009;28;20043;-71
2023/03/30 07:11:11;;;;;;;23.92;14.38;;;;;;;13.13;75.02;101484.25;4969889;28;20054;-71
2023/03/30 07:13:40;;;;;;;26.48;15.02;;;;;;;13.22;76.51;101485.34;4973180;28;20074;-72
2023/03/30 07:16:09;;;;;;;28.05;15.23;;;;;;;13.24;74.94;101476.84;4967660;28;20517;-71
2023/03/30 07:18:37;;;;;;;25.98;15.75;;;;;;;13.30;72.97;101478.47;4951516;28;20051;-72
2023/03/30 07:21:05;;;;;;;25.13;15.18;;;;;;;13.43;73.81;101477.06;4949881;28;20054;-72
2023/03/30 07:23:42;;;;;;;22.38;13.80;;;;;;;13.55;73.61;101485.06;4967201;28;20051;-72
2023/03/30 07:26:16;;;;;;;27.23;14.45;;;;;;;13.79;73.96;101481.72;4935778;29;20062;-73
2023/03/30 07:28:55;;;;;;;29.17;15.13;;;;;;;13.78;72.29;101485.56;4996471;28;20051;-73
2023/03/30 07:31:23;;;;;;;24.33;14.05;;;;;;;13.55;73.09;101488.63;4970724;28;20046;-73
2023/03/30 07:33:52;;;;;;;29.02;14.75;;;;;;;13.74;72.87;101484.47;4968895;28;20494;-73
2023/03/30 07:36:24;;;;;;;24.27;14.25;;;;;;;13.67;71.74;101477.34;4970194;28;20049;-72
2023/03/30 07:38:52;;;;;;;23.35;14.90;;;;;;;13.79;72.75;101478.97;4971822;28;20055;-72
2023/03/30 07:41:20;;;;;;;26.38;14.45;;;;;;;13.72;74.44;101478.44;4970451;28;20042;-72
2023/03/30 07:43:52;;;;;;;27.27;14.15;;;;;;;13.68;73.31;101478.97;4973688;28;20524;-72
2023/03/30 07:46:20;;;;;;;25.05;14.32;;;;;;;13.81;73.46;101479.50;4974275;28;20043;-72
2023/03/30 07:48:51;;;;;;;24.88;14.38;;;;;;;13.90;73.86;101486.09;4976709;28;20054;-72
2023/03/30 07:51:20;;;;;;;22.98;13.63;;;;;;;13.70;72.85;101481.47;4984406;28;20046;-72
2023/03/30 07:54:03;;;;;;;25.23;13.88;;;;;;;13.78;72.42;101482.81;4960594;28;20066;-73
2023/03/30 07:56:43;;;;;;;26.23;14.07;;;;;;;13.62;71.47;101476.50;4955602;28;20050;-72
2023/03/30 07:59:12;;;;;;;22.75;13.27;;;;;;;13.78;72.04;101483.63;4973912;28;20039;-72
2023/03/30 08:01:43;;;;;;;23.02;12.95;;;;;;;13.87;71.63;101481.13;4980739;28;20051;-72
2023/03/30 08:04:26;;;;;;;22.20;12.88;;;;;;;13.83;71.38;101478.13;4970331;28;20051;-74
2023/03/30 08:06:55;;;;;;;25.23;12.60;;;;;;;13.97;69.37;101483.00;4974069;28;20054;-72
2023/03/30 08:09:23;;;;;;;25.13;12.65;;;;;;;14.31;69.29;101485.06;4973794;28;20047;-73
2023/03/30 08:11:51;;;;;;;27.98;12.90;;;;;;;14.48;67.00;101486.66;4974360;28;20397;-73
2023/03/30 08:14:19;;;;;;;25.05;12.57;;;;;;;14.76;65.30;101489.81;4975183;28;20066;-73
2023/03/30 08:16:47;;;;;;;22.02;11.95;;;;;;;14.70;67.19;101488.16;4975033;28;20057;-73
2023/03/30 08:19:15;;;;;;;21.67;12.30;;;;;;;14.59;64.41;101496.50;4975086;28;20059;-73
2023/03/30 08:21:43;;;;;;;26.92;11.93;;;;;;;14.59;64.94;101487.41;4974945;28;20062;-73
2023/03/30 08:24:11;;;;;;;17.70;10.23;;;;;;;14.66;63.01;101479.63;4974918;28;20054;-72
2023/03/30 08:26:38;;;;;;;19.40;10.90;;;;;;;14.29;65.46;101483.72;4974942;28;20055;-73
2023/03/30 08:29:07;;;;;;;16.95;10.65;;;;;;;14.51;64.86;101486.91;4974922;28;20082;-73
2023/03/30 08:31:36;;;;;;;19.65;10.63;;;;;;;14.55;66.95;101492.66;4975417;28;20046;-73
2023/03/30 08:34:05;;;;;;;19.08;11.13;;;;;;;14.52;64.35;101490.50;4974918;28;20070;-72
2023/03/30 08:36:33;;;;;;;22.25;11.77;;;;;;;14.41;65.55;101497.16;4974874;28;20406;-72
2023/03/30 08:39:01;;;;;;;19.90;11.32;;;;;;;14.28;66.76;101490.34;4975236;28;20047;-72
2023/03/30 08:41:30;;;;;;;19.40;11.07;;;;;;;14.54;64.77;101493.78;4974765;28;20057;-72
2023/03/30 08:44:01;;;;;;;21.52;11.57;;;;;;;14.28;66.30;101493.09;4974523;28;20046;-73
2023/03/30 08:46:29;;;;;;;20.15;10.73;;;;;;;14.36;66.65;101492.47;4974651;28;20047;-72
2023/03/30 08:49:04;;;;;;;20.20;11.38;;;;;;;14.50;67.87;101490.75;4975090;28;20043;-72
2023/03/30 08:51:34;;;;;;;21.27;11.23;;;;;;;14.87;65.16;101491.38;4973879;28;20051;-72
2023/03/30 08:54:04;;;;;;;20.55;11.80;;;;;;;15.24;62.34;101494.66;4973680;28;20402;-72
2023/03/30 08:56:51;;;;;;;22.70;11.45;;;;;;;15.21;63.36;101495.25;4974927;28;20035;-72
2023/03/30 08:59:24;;;;;;;18.27;11.30;;;;;;;15.50;61.17;101491.66;4974747;28;20069;-72
2023/03/30 09:02:02;;;;;;;18.20;10.90;;;;;;;15.53;62.72;101496.59;4974722;28;20053;-72
2023/03/30 09:05:07;;;;;;;22.98;11.23;;;;;;;15.68;60.49;101494.78;4974697;28;20062;-72
2023/03/30 09:07:54;;;;;;;18.80;10.75;;;;;;;15.44;62.21;101499.16;4974650;28;20046;-72
2023/03/30 09:10:26;;;;;;;17.92;10.73;;;;;;;15.51;63.35;101504.34;4974437;28;20051;-72
2023/03/30 09:13:01;;;;;;;19.75;9.38;;;;;;;15.23;62.91;101503.22;4974518;28;20055;-72
2023/03/30 09:15:35;;;;;;;16.90;10.32;;;;;;;15.05;64.81;101502.81;4974554;28;20066;-72
2023/03/30 09:18:26;;;;;;;17.95;9.90;;;;;;;14.74;66.07;101495.59;4974003;28;20054;-72
2023/03/30 09:20:57;;;;;;;18.17;8.80;;;;;;;14.49;67.60;101497.38;4974309;28;20061;-72
2023/03/30 09:23:28;;;;;;;16.05;9.23;;;;;;;15.00;65.64;101503.69;4974411;28;20051;-72
2023/03/30 09:26:33;;;;;;;16.30;9.10;;;;;;;15.13;66.23;101502.22;4974444;28;20403;-71
2023/03/30 09:29:16;;;;;;;15.35;9.15;;;;;;;15.22;64.85;101507.09;4974117;28;20050;-72
2023/03/30 09:32:02;;;;;;;14.77;9.15;;;;;;;15.11;65.04;101509.94;4973852;28;20057;-72
2023/03/30 09:35:14;;;;;;;15.98;8.48;;;;;;;14.86;66.46;101506.25;4973956;28;20055;-71
2023/03/30 09:37:42;;;;;;;18.08;9.70;;;;;;;14.73;68.28;101507.72;4970184;28;20047;-72
2023/03/30 09:40:34;;;;;;;15.88;9.07;;;;;;;14.57;67.63;101497.88;4973418;28;20066;-71
2023/03/30 09:43:33;;;;;;;17.48;8.68;;;;;;;14.85;66.72;101498.28;4973846;28;20046;-72
2023/03/30 09:46:05;;;;;;;20.30;9.60;;;;;;;14.68;67.21;101499.47;4973590;28;20055;-74
2023/03/30 09:48:39;;;;;;;20.17;9.45;;;;;;;14.97;66.80;101503.44;4973498;28;20051;-72
2023/03/30 09:51:19;;;;;;;15.93;8.95;;;;;;;14.46;69.17;101492.44;4973726;28;20047;-72
2023/03/30 09:53:50;;;;;;;16.05;9.93;;;;;;;14.81;67.51;101483.44;4973722;28;20065;-74
2023/03/30 09:56:26;;;;;;;15.10;9.38;;;;;;;14.83;67.26;101484.81;4973733;28;20066;-72
2023/03/30 09:58:55;;;;;;;18.52;9.77;;;;;;;14.88;66.83;101483.94;4972198;28;20055;-74
2023/03/30 10:01:36;;;;;;;20.75;10.38;;;;;;;14.91;68.07;101475.09;4973490;28;20055;-72
2023/03/30 10:04:09;;;;;;;16.75;9.60;;;;;;;14.77;69.14;101484.00;4973251;28;20062;-72
2023/03/30 10:06:45;;;;;;;19.75;10.20;;;;;;;15.16;66.34;101482.31;4973036;28;20506;-72
2023/03/30 10:09:16;;;;;;;19.20;9.40;;;;;;;15.02;66.56;101484.09;4973854;28;20047;-72
2023/03/30 10:11:56;;;;;;;19.83;10.00;;;;;;;15.29;65.11;101483.59;4973647;28;20047;-72
2023/03/30 10:14:33;;;;;;;19.45;9.73;;;;;;;15.42;65.03;101473.00;4973075;28;20054;-72
2023/03/30 10:17:04;;;;;;;19.80;9.88;;;;;;;15.33;64.76;101461.78;4973311;28;20046;-72
2023/03/30 10:19:34;;;;;;;16.27;8.85;;;;;;;15.88;64.02;101460.63;4973306;28;20049;-89
2023/03/30 13:39:13;;;;;;;14.25;8.55;;;;;;;19.44;49.44;101241.53;4974072;28;20065;-88
2023/03/30 16:52:07;;;;;;;13.23;8.32;;;;;;;17.55;60.58;101024.53;4913431;29;20059;-89
2023/03/30 17:01:41;;;;;;;15.00;8.13;;;;;;;17.62;61.78;101027.66;4865213;29;20535;-88
2023/03/30 18:09:47;;;;;;;16.33;8.15;;;;;;;17.24;63.90;101011.44;4967450;28;20409;-88
2023/03/30 18:14:17;;;;;;;15.05;8.90;;;;;;;17.17;63.01;101012.72;4964580;28;20055;-87
2023/03/30 18:27:50;;;;;;;15.95;9.05;;;;;;;17.08;63.45;101022.06;4864453;29;20045;-88
2023/03/30 18:32:51;;;;;;;14.00;8.45;;;;;;;17.00;63.67;101031.91;4819156;29;20058;-90
2023/03/30 18:46:13;;;;;;;19.13;9.60;;;;;;;16.93;64.93;101015.78;4771888;29;20082;-71
2023/03/30 18:48:42;;;;;;;15.25;9.23;;;;;;;16.93;64.82;101016.56;4733963;30;20131;-72
2023/03/30 18:51:11;;;;;;;14.55;8.82;;;;;;;16.88;65.07;101008.41;4792814;29;20058;-71
2023/03/30 18:53:39;;;;;;;17.70;8.80;;;;;;;16.75;65.29;101003.72;4813166;29;20055;-71
2023/03/30 18:56:11;;;;;;;16.38;8.43;;;;;;;16.73;66.02;101011.53;4810098;29;20055;-71
2023/03/30 18:58:40;;;;;;;16.40;9.18;;;;;;;16.61;65.81;101007.34;4818553;29;20097;-72
2023/03/30 19:01:11;;;;;;;15.45;8.50;;;;;;;16.55;65.63;101011.38;4838241;29;20073;-71
2023/03/30 19:03:40;;;;;;;18.40;9.30;;;;;;;16.49;66.55;101013.44;4846309;29;20050;-71
2023/03/30 19:06:12;;;;;;;21.85;9.07;;;;;;;16.56;66.15;101004.72;4873851;29;20045;-71
2023/03/30 19:08:42;;;;;;;17.90;8.82;;;;;;;16.53;66.50;101016.41;4861576;29;20081;-72
2023/03/30 19:11:17;;;;;;;22.52;9.30;;;;;;;16.52;66.38;101017.50;4871143;29;20060;-71
2023/03/30 19:13:50;;;;;;;17.42;9.30;;;;;;;16.43;67.62;101017.41;4870031;29;20429;-71
2023/03/30 19:16:21;;;;;;;20.77;9.52;;;;;;;16.45;66.86;101017.09;4873863;29;20564;-72
2023/03/30 19:18:49;;;;;;;15.23;8.32;;;;;;;16.37;67.61;101019.47;4858413;29;20048;-72
2023/03/30 19:21:17;;;;;;;17.23;9.23;;;;;;;16.44;66.53;101021.00;4873853;29;20056;-72
2023/03/30 19:23:45;;;;;;;15.63;9.95;;;;;;;16.35;68.70;101007.09;4864225;29;20053;-72
2023/03/30 19:26:13;;;;;;;17.00;9.27;;;;;;;16.35;68.34;100998.81;4892304;29;20791;-72
2023/03/30 19:28:41;;;;;;;18.25;9.07;;;;;;;16.27;69.01;101016.13;4916676;28;20046;-72
2023/03/30 19:31:14;;;;;;;17.70;9.93;;;;;;;16.30;68.28;101010.78;4970940;28;20069;-72
2023/03/30 19:33:42;;;;;;;16.37;9.57;;;;;;;16.38;67.57;101009.25;4953768;28;20513;-72
2023/03/30 19:36:10;;;;;;;18.65;9.40;;;;;;;16.37;68.08;101015.88;4970940;28;20517;-72
2023/03/30 19:38:38;;;;;;;21.73;10.00;;;;;;;16.34;68.77;101020.09;4954755;28;20501;-72
2023/03/30 19:41:06;;;;;;;18.48;9.65;;;;;;;16.19;69.89;101012.13;4974672;28;20054;-72
2023/03/30 19:43:35;;;;;;;20.55;10.25;;;;;;;16.22;68.58;101017.03;4947406;29;20055;-71
2023/03/30 19:46:03;;;;;;;23.52;10.73;;;;;;;16.31;69.12;101017.94;4972328;28;20050;-71
2023/03/30 19:48:36;;;;;;;14.02;10.00;;;;;;;16.31;68.01;101029.00;4956973;28;20062;-71
2023/03/30 19:51:06;;;;;;;14.48;9.20;;;;;;;16.31;69.10;101036.44;4967385;28;20071;-72
2023/03/30 19:53:36;;;;;;;16.00;9.60;;;;;;;16.12;69.77;101035.44;4947125;28;20070;-72
2023/03/30 19:56:14;;;;;;;19.35;11.50;;;;;;;16.05;69.71;101040.56;4959620;28;20049;-72
2023/03/30 19:58:44;;;;;;;18.85;9.70;;;;;;;16.11;69.50;101031.06;4943259;28;20066;-73
2023/03/30 20:01:12;;;;;;;20.08;9.48;;;;;;;16.18;69.89;101027.88;4955550;28;20508;-72